This is the latest recevied weather packets stored in our database for station/object HB9Y1. If no packets are shown the sender has not sent any weather packets the latest 10 day(s).
| Time | Temp. | Humidity | Pressure | Rain* | Wind** | Luminosity | Snow |
|---|---|---|---|---|---|---|---|
| 1777596208 | 5° C | 79% | 1020.9 hPa | 0 mm | - | 0 W/m² | - |
| 1777595008 | 5.56° C | 79% | 1021.3 hPa | 0 mm | - | 0 W/m² | - |
| 1777592608 | 5.56° C | 79% | 1021.3 hPa | 0 mm | - | 0 W/m² | - |
| 1777589003 | 5.56° C | 81% | 1020.9 hPa | 0 mm | - | 0 W/m² | - |
| 1777588420 | 6.11° C | 82% | 1020.9 hPa | 0 mm | - | 0 W/m² | - |
| 1777587200 | 6.67° C | 76% | 1020.8 hPa | 0 mm | - | 0 W/m² | - |
| 1777586000 | 7.22° C | 74% | 1020.5 hPa | 0 mm | - | 0 W/m² | - |
| 1777577028 | 7.78° C | 75% | 1019.9 hPa | 0 mm | - | 0 W/m² | - |
| 1777575807 | 7.78° C | 78% | 1019.7 hPa | 0 mm | - | 0 W/m² | - |
| 1777569199 | 12.22° C | 65% | 1018.9 hPa | 0 mm | - | 359 W/m² | - |
| 1777565003 | 14.44° C | 63% | 1018.1 hPa | 0 mm | - | 557 W/m² | - |
| 1777564399 | 15° C | 63% | 1017.9 hPa | 0 mm | - | 584 W/m² | - |
| 1777563199 | 15° C | 61% | 1017.7 hPa | 0 mm | - | 622 W/m² | - |
| 1777560203 | 15° C | 53% | 1017.7 hPa | 0 mm | - | 708 W/m² | - |
| 1777557807 | 15° C | 53% | 1017.9 hPa | 0 mm | - | 747 W/m² | - |
| 1777555999 | 14.44° C | 56% | 1017.7 hPa | 0 mm | - | 797 W/m² | - |
| 1777554208 | 13.33° C | 56% | 1017.7 hPa | 0 mm | - | 831 W/m² | - |
| 1777548799 | 11.67° C | 65% | 1017.7 hPa | 0 mm | - | 206 W/m² | - |
| 1777546399 | 11.11° C | 66% | 1018 hPa | 0 mm | - | 837 W/m² | - |
| 1777543427 | 11.11° C | 66% | 1017.7 hPa | 0 mm | - | 737 W/m² | - |
| 1777541600 | 11.11° C | 67% | 1017.7 hPa | 0 mm | - | 718 W/m² | - |
| 1777540399 | 10.56° C | 69% | 1017.9 hPa | 0 mm | - | 649 W/m² | - |
| 1777538040 | 10.56° C | 70% | 1017.7 hPa | 0 mm | - | 509 W/m² | - |
| 1777535027 | 10° C | 68% | 1017.7 hPa | 0 mm | - | 311 W/m² | - |
| 1777533807 | 8.33° C | 71% | 1017.7 hPa | 0 mm | - | 292 W/m² | - |
* Rain latest hour (hover to see other rain measurements)
** Current wind speed in m/s (hover to see current wind gust speed)